sensor_id;sensor_type;location;lat;lon;timestamp;P1;durP1;ratioP1;P2;durP2;ratioP2
14019;SDS011;7085;51.428;6.796;2022-12-20T00:01:52;2.30;;;1.73;;
14019;SDS011;7085;51.428;6.796;2022-12-20T00:04:19;1.90;;;1.50;;
14019;SDS011;7085;51.428;6.796;2022-12-20T00:06:47;1.90;;;1.73;;
14019;SDS011;7085;51.428;6.796;2022-12-20T00:09:15;2.00;;;1.83;;
14019;SDS011;7085;51.428;6.796;2022-12-20T00:11:42;3.42;;;1.83;;
14019;SDS011;7085;51.428;6.796;2022-12-20T00:14:09;1.67;;;1.58;;
14019;SDS011;7085;51.428;6.796;2022-12-20T00:16:36;1.90;;;1.55;;
14019;SDS011;7085;51.428;6.796;2022-12-20T00:19:04;2.40;;;1.85;;
14019;SDS011;7085;51.428;6.796;2022-12-20T00:21:32;2.35;;;2.00;;
14019;SDS011;7085;51.428;6.796;2022-12-20T00:23:59;2.13;;;1.70;;
14019;SDS011;7085;51.428;6.796;2022-12-20T00:26:29;1.83;;;1.70;;
14019;SDS011;7085;51.428;6.796;2022-12-20T00:28:56;3.08;;;1.90;;
14019;SDS011;7085;51.428;6.796;2022-12-20T00:31:24;2.03;;;1.63;;
14019;SDS011;7085;51.428;6.796;2022-12-20T00:33:52;4.13;;;1.75;;
14019;SDS011;7085;51.428;6.796;2022-12-20T00:36:20;2.65;;;1.77;;
14019;SDS011;7085;51.428;6.796;2022-12-20T00:38:48;2.10;;;1.45;;
14019;SDS011;7085;51.428;6.796;2022-12-20T00:41:16;1.63;;;1.35;;
14019;SDS011;7085;51.428;6.796;2022-12-20T00:43:44;2.28;;;1.38;;
14019;SDS011;7085;51.428;6.796;2022-12-20T00:46:12;1.90;;;1.40;;
14019;SDS011;7085;51.428;6.796;2022-12-20T00:48:39;1.65;;;1.50;;
14019;SDS011;7085;51.428;6.796;2022-12-20T00:51:07;3.95;;;1.52;;
14019;SDS011;7085;51.428;6.796;2022-12-20T00:53:35;1.75;;;1.25;;
14019;SDS011;7085;51.428;6.796;2022-12-20T00:56:03;2.55;;;1.45;;
14019;SDS011;7085;51.428;6.796;2022-12-20T00:58:30;1.85;;;1.73;;
14019;SDS011;7085;51.428;6.796;2022-12-20T01:00:59;3.55;;;1.60;;
14019;SDS011;7085;51.428;6.796;2022-12-20T01:03:26;2.20;;;1.35;;
14019;SDS011;7085;51.428;6.796;2022-12-20T01:05:54;1.48;;;1.35;;
14019;SDS011;7085;51.428;6.796;2022-12-20T01:08:22;1.70;;;1.60;;
14019;SDS011;7085;51.428;6.796;2022-12-20T01:10:56;1.63;;;1.52;;
14019;SDS011;7085;51.428;6.796;2022-12-20T01:13:24;1.60;;;1.50;;
14019;SDS011;7085;51.428;6.796;2022-12-20T01:15:51;2.45;;;2.25;;
14019;SDS011;7085;51.428;6.796;2022-12-20T01:18:20;3.85;;;1.35;;
14019;SDS011;7085;51.428;6.796;2022-12-20T01:20:47;1.85;;;1.30;;
14019;SDS011;7085;51.428;6.796;2022-12-20T01:23:14;1.90;;;1.40;;
14019;SDS011;7085;51.428;6.796;2022-12-20T01:25:41;1.63;;;1.02;;
14019;SDS011;7085;51.428;6.796;2022-12-20T01:28:08;2.45;;;1.63;;
14019;SDS011;7085;51.428;6.796;2022-12-20T01:30:38;2.42;;;1.80;;
14019;SDS011;7085;51.428;6.796;2022-12-20T01:33:05;1.83;;;1.50;;
14019;SDS011;7085;51.428;6.796;2022-12-20T01:35:33;1.52;;;1.40;;
14019;SDS011;7085;51.428;6.796;2022-12-20T01:38:00;2.20;;;1.63;;
14019;SDS011;7085;51.428;6.796;2022-12-20T01:40:28;2.30;;;1.30;;
14019;SDS011;7085;51.428;6.796;2022-12-20T01:42:55;1.98;;;1.60;;
14019;SDS011;7085;51.428;6.796;2022-12-20T01:45:24;1.48;;;1.35;;
14019;SDS011;7085;51.428;6.796;2022-12-20T01:47:52;3.25;;;1.23;;
14019;SDS011;7085;51.428;6.796;2022-12-20T01:50:19;1.58;;;1.48;;
14019;SDS011;7085;51.428;6.796;2022-12-20T01:52:48;2.03;;;1.60;;
14019;SDS011;7085;51.428;6.796;2022-12-20T01:55:16;1.65;;;1.30;;
14019;SDS011;7085;51.428;6.796;2022-12-20T01:57:44;2.13;;;1.70;;
14019;SDS011;7085;51.428;6.796;2022-12-20T02:00:13;1.50;;;1.27;;
14019;SDS011;7085;51.428;6.796;2022-12-20T02:02:41;2.60;;;1.33;;
14019;SDS011;7085;51.428;6.796;2022-12-20T02:05:09;1.30;;;1.20;;
14019;SDS011;7085;51.428;6.796;2022-12-20T02:07:38;1.63;;;1.40;;
14019;SDS011;7085;51.428;6.796;2022-12-20T02:10:08;4.78;;;1.77;;
14019;SDS011;7085;51.428;6.796;2022-12-20T02:12:37;3.60;;;1.42;;
14019;SDS011;7085;51.428;6.796;2022-12-20T02:15:09;1.98;;;1.50;;
14019;SDS011;7085;51.428;6.796;2022-12-20T02:17:41;2.58;;;1.60;;
14019;SDS011;7085;51.428;6.796;2022-12-20T02:23:05;3.40;;;1.55;;
14019;SDS011;7085;51.428;6.796;2022-12-20T02:25:45;1.63;;;1.40;;
14019;SDS011;7085;51.428;6.796;2022-12-20T02:28:21;1.50;;;1.30;;
14019;SDS011;7085;51.428;6.796;2022-12-20T02:30:53;3.17;;;1.65;;
14019;SDS011;7085;51.428;6.796;2022-12-20T02:33:23;1.98;;;1.88;;
14019;SDS011;7085;51.428;6.796;2022-12-20T02:35:52;2.22;;;1.80;;
14019;SDS011;7085;51.428;6.796;2022-12-20T02:38:23;5.30;;;1.75;;
14019;SDS011;7085;51.428;6.796;2022-12-20T02:40:53;1.65;;;1.55;;
14019;SDS011;7085;51.428;6.796;2022-12-20T02:43:22;2.78;;;2.03;;
14019;SDS011;7085;51.428;6.796;2022-12-20T02:46:09;2.95;;;1.75;;
14019;SDS011;7085;51.428;6.796;2022-12-20T02:48:37;2.38;;;1.60;;
14019;SDS011;7085;51.428;6.796;2022-12-20T02:51:05;3.03;;;1.83;;
14019;SDS011;7085;51.428;6.796;2022-12-20T02:53:34;2.05;;;1.85;;
14019;SDS011;7085;51.428;6.796;2022-12-20T02:56:03;2.65;;;1.80;;
14019;SDS011;7085;51.428;6.796;2022-12-20T02:58:33;4.25;;;2.05;;
14019;SDS011;7085;51.428;6.796;2022-12-20T03:01:03;4.70;;;2.08;;
14019;SDS011;7085;51.428;6.796;2022-12-20T03:03:33;2.95;;;2.20;;
14019;SDS011;7085;51.428;6.796;2022-12-20T03:06:01;3.40;;;2.05;;
14019;SDS011;7085;51.428;6.796;2022-12-20T03:08:28;5.75;;;1.98;;
14019;SDS011;7085;51.428;6.796;2022-12-20T03:10:55;4.03;;;2.42;;
14019;SDS011;7085;51.428;6.796;2022-12-20T03:13:22;4.50;;;3.20;;
14019;SDS011;7085;51.428;6.796;2022-12-20T03:15:49;2.65;;;2.45;;
14019;SDS011;7085;51.428;6.796;2022-12-20T03:18:17;9.95;;;3.28;;
14019;SDS011;7085;51.428;6.796;2022-12-20T03:20:45;3.78;;;2.58;;
14019;SDS011;7085;51.428;6.796;2022-12-20T03:23:12;4.63;;;2.53;;
14019;SDS011;7085;51.428;6.796;2022-12-20T03:25:39;4.07;;;2.60;;
14019;SDS011;7085;51.428;6.796;2022-12-20T03:28:06;2.85;;;2.53;;
14019;SDS011;7085;51.428;6.796;2022-12-20T03:30:33;4.60;;;2.88;;
14019;SDS011;7085;51.428;6.796;2022-12-20T03:33:00;6.78;;;2.78;;
14019;SDS011;7085;51.428;6.796;2022-12-20T03:35:27;3.47;;;3.05;;
14019;SDS011;7085;51.428;6.796;2022-12-20T03:37:56;6.25;;;3.35;;
14019;SDS011;7085;51.428;6.796;2022-12-20T03:40:23;3.05;;;2.70;;
14019;SDS011;7085;51.428;6.796;2022-12-20T03:42:50;4.78;;;3.15;;
14019;SDS011;7085;51.428;6.796;2022-12-20T03:45:17;8.32;;;2.90;;
14019;SDS011;7085;51.428;6.796;2022-12-20T03:47:44;5.43;;;2.67;;
14019;SDS011;7085;51.428;6.796;2022-12-20T03:50:11;5.68;;;3.10;;
14019;SDS011;7085;51.428;6.796;2022-12-20T03:52:38;4.35;;;2.63;;
14019;SDS011;7085;51.428;6.796;2022-12-20T03:55:07;4.65;;;3.40;;
14019;SDS011;7085;51.428;6.796;2022-12-20T03:57:36;3.50;;;2.72;;
14019;SDS011;7085;51.428;6.796;2022-12-20T04:00:04;4.85;;;3.35;;
14019;SDS011;7085;51.428;6.796;2022-12-20T04:02:31;4.70;;;3.10;;
14019;SDS011;7085;51.428;6.796;2022-12-20T04:04:58;4.05;;;2.88;;
14019;SDS011;7085;51.428;6.796;2022-12-20T04:07:25;4.70;;;3.47;;
14019;SDS011;7085;51.428;6.796;2022-12-20T04:09:52;6.72;;;3.40;;
14019;SDS011;7085;51.428;6.796;2022-12-20T04:12:20;7.75;;;3.63;;
14019;SDS011;7085;51.428;6.796;2022-12-20T04:14:47;5.65;;;4.63;;
14019;SDS011;7085;51.428;6.796;2022-12-20T04:17:14;4.75;;;3.58;;
14019;SDS011;7085;51.428;6.796;2022-12-20T04:19:41;5.03;;;3.42;;
14019;SDS011;7085;51.428;6.796;2022-12-20T04:22:08;4.57;;;3.92;;
14019;SDS011;7085;51.428;6.796;2022-12-20T04:24:35;5.23;;;3.47;;
14019;SDS011;7085;51.428;6.796;2022-12-20T04:27:02;9.57;;;3.83;;
14019;SDS011;7085;51.428;6.796;2022-12-20T04:29:31;9.75;;;3.75;;
14019;SDS011;7085;51.428;6.796;2022-12-20T04:31:58;7.80;;;3.65;;
14019;SDS011;7085;51.428;6.796;2022-12-20T04:34:25;4.57;;;3.55;;
14019;SDS011;7085;51.428;6.796;2022-12-20T04:36:52;8.18;;;3.95;;
14019;SDS011;7085;51.428;6.796;2022-12-20T04:39:19;8.07;;;4.60;;
14019;SDS011;7085;51.428;6.796;2022-12-20T04:41:46;10.63;;;3.55;;
14019;SDS011;7085;51.428;6.796;2022-12-20T04:44:13;4.63;;;3.03;;
14019;SDS011;7085;51.428;6.796;2022-12-20T04:46:41;6.03;;;3.78;;
14019;SDS011;7085;51.428;6.796;2022-12-20T04:49:07;5.28;;;3.30;;
14019;SDS011;7085;51.428;6.796;2022-12-20T04:51:34;3.47;;;3.15;;
14019;SDS011;7085;51.428;6.796;2022-12-20T04:54:01;8.02;;;3.33;;
14019;SDS011;7085;51.428;6.796;2022-12-20T04:56:28;5.25;;;3.50;;
14019;SDS011;7085;51.428;6.796;2022-12-20T04:58:55;6.85;;;3.15;;
14019;SDS011;7085;51.428;6.796;2022-12-20T05:01:23;4.53;;;3.22;;
14019;SDS011;7085;51.428;6.796;2022-12-20T05:03:51;5.95;;;3.35;;
14019;SDS011;7085;51.428;6.796;2022-12-20T05:06:18;5.30;;;3.92;;
14019;SDS011;7085;51.428;6.796;2022-12-20T05:08:45;3.10;;;2.80;;
14019;SDS011;7085;51.428;6.796;2022-12-20T05:11:12;5.03;;;3.15;;
14019;SDS011;7085;51.428;6.796;2022-12-20T05:13:40;8.23;;;3.92;;
14019;SDS011;7085;51.428;6.796;2022-12-20T05:16:07;8.13;;;3.50;;
14019;SDS011;7085;51.428;6.796;2022-12-20T05:18:34;6.78;;;3.45;;
14019;SDS011;7085;51.428;6.796;2022-12-20T05:21:02;7.57;;;3.28;;
14019;SDS011;7085;51.428;6.796;2022-12-20T05:23:47;5.50;;;3.13;;
14019;SDS011;7085;51.428;6.796;2022-12-20T05:26:33;6.18;;;3.40;;
14019;SDS011;7085;51.428;6.796;2022-12-20T05:29:02;4.50;;;3.45;;
14019;SDS011;7085;51.428;6.796;2022-12-20T05:31:29;6.97;;;3.17;;
14019;SDS011;7085;51.428;6.796;2022-12-20T05:33:56;4.40;;;3.05;;
14019;SDS011;7085;51.428;6.796;2022-12-20T05:36:25;4.28;;;3.42;;
14019;SDS011;7085;51.428;6.796;2022-12-20T05:38:52;3.63;;;3.22;;
14019;SDS011;7085;51.428;6.796;2022-12-20T05:41:19;3.63;;;3.00;;
14019;SDS011;7085;51.428;6.796;2022-12-20T05:43:46;3.75;;;3.33;;
14019;SDS011;7085;51.428;6.796;2022-12-20T05:46:13;4.45;;;3.22;;
14019;SDS011;7085;51.428;6.796;2022-12-20T05:48:40;3.40;;;3.00;;
14019;SDS011;7085;51.428;6.796;2022-12-20T05:51:07;6.30;;;2.95;;
14019;SDS011;7085;51.428;6.796;2022-12-20T05:53:36;6.10;;;3.20;;
14019;SDS011;7085;51.428;6.796;2022-12-20T05:56:03;4.75;;;2.67;;
14019;SDS011;7085;51.428;6.796;2022-12-20T05:58:30;4.18;;;2.75;;
14019;SDS011;7085;51.428;6.796;2022-12-20T06:00:58;4.00;;;3.17;;
14019;SDS011;7085;51.428;6.796;2022-12-20T06:03:26;5.63;;;2.92;;
14019;SDS011;7085;51.428;6.796;2022-12-20T06:05:53;6.57;;;3.30;;
14019;SDS011;7085;51.428;6.796;2022-12-20T06:08:20;4.22;;;2.92;;
14019;SDS011;7085;51.428;6.796;2022-12-20T06:10:49;3.80;;;2.83;;
14019;SDS011;7085;51.428;6.796;2022-12-20T06:13:16;8.52;;;3.20;;
14019;SDS011;7085;51.428;6.796;2022-12-20T06:15:43;6.22;;;2.58;;
14019;SDS011;7085;51.428;6.796;2022-12-20T06:18:10;3.25;;;2.33;;
14019;SDS011;7085;51.428;6.796;2022-12-20T06:20:38;4.50;;;2.50;;
14019;SDS011;7085;51.428;6.796;2022-12-20T06:23:05;4.90;;;2.95;;
14019;SDS011;7085;51.428;6.796;2022-12-20T06:25:33;4.45;;;2.53;;
14019;SDS011;7085;51.428;6.796;2022-12-20T06:28:03;2.65;;;2.45;;
14019;SDS011;7085;51.428;6.796;2022-12-20T06:30:31;4.70;;;2.72;;
14019;SDS011;7085;51.428;6.796;2022-12-20T06:32:58;5.45;;;2.90;;
14019;SDS011;7085;51.428;6.796;2022-12-20T06:35:26;3.83;;;2.97;;
14019;SDS011;7085;51.428;6.796;2022-12-20T06:37:53;4.30;;;2.53;;
14019;SDS011;7085;51.428;6.796;2022-12-20T06:40:20;2.17;;;1.98;;
14019;SDS011;7085;51.428;6.796;2022-12-20T06:42:47;2.70;;;2.35;;
14019;SDS011;7085;51.428;6.796;2022-12-20T06:45:16;4.47;;;2.38;;
14019;SDS011;7085;51.428;6.796;2022-12-20T06:47:43;3.10;;;2.40;;
14019;SDS011;7085;51.428;6.796;2022-12-20T06:50:10;2.30;;;2.10;;
14019;SDS011;7085;51.428;6.796;2022-12-20T06:52:37;4.07;;;2.33;;
14019;SDS011;7085;51.428;6.796;2022-12-20T06:55:04;2.40;;;2.20;;
14019;SDS011;7085;51.428;6.796;2022-12-20T06:57:31;3.65;;;2.30;;
14019;SDS011;7085;51.428;6.796;2022-12-20T06:59:58;4.00;;;2.05;;
14019;SDS011;7085;51.428;6.796;2022-12-20T07:02:26;2.80;;;1.80;;
14019;SDS011;7085;51.428;6.796;2022-12-20T07:04:53;3.35;;;2.10;;
14019;SDS011;7085;51.428;6.796;2022-12-20T07:07:20;5.65;;;2.17;;
14019;SDS011;7085;51.428;6.796;2022-12-20T07:09:47;2.08;;;1.92;;
14019;SDS011;7085;51.428;6.796;2022-12-20T07:12:15;1.80;;;1.70;;
14019;SDS011;7085;51.428;6.796;2022-12-20T07:14:42;1.80;;;1.70;;
14019;SDS011;7085;51.428;6.796;2022-12-20T07:17:09;2.40;;;1.92;;
14019;SDS011;7085;51.428;6.796;2022-12-20T07:19:37;1.90;;;1.75;;
14019;SDS011;7085;51.428;6.796;2022-12-20T07:22:04;2.50;;;2.17;;
14019;SDS011;7085;51.428;6.796;2022-12-20T07:24:31;1.60;;;1.50;;
14019;SDS011;7085;51.428;6.796;2022-12-20T07:26:58;3.90;;;1.95;;
14019;SDS011;7085;51.428;6.796;2022-12-20T07:29:26;2.20;;;1.80;;
14019;SDS011;7085;51.428;6.796;2022-12-20T07:31:53;3.13;;;2.03;;
14019;SDS011;7085;51.428;6.796;2022-12-20T07:34:20;3.05;;;1.95;;
14019;SDS011;7085;51.428;6.796;2022-12-20T07:36:48;2.90;;;2.10;;
14019;SDS011;7085;51.428;6.796;2022-12-20T07:39:15;5.35;;;1.80;;
14019;SDS011;7085;51.428;6.796;2022-12-20T07:41:43;3.13;;;1.77;;
14019;SDS011;7085;51.428;6.796;2022-12-20T07:44:10;2.80;;;2.10;;
14019;SDS011;7085;51.428;6.796;2022-12-20T07:46:37;2.33;;;1.90;;
14019;SDS011;7085;51.428;6.796;2022-12-20T07:49:04;4.05;;;2.50;;
14019;SDS011;7085;51.428;6.796;2022-12-20T07:51:32;2.17;;;1.90;;
14019;SDS011;7085;51.428;6.796;2022-12-20T07:54:02;3.03;;;1.90;;
14019;SDS011;7085;51.428;6.796;2022-12-20T07:56:30;4.25;;;2.28;;
14019;SDS011;7085;51.428;6.796;2022-12-20T07:58:59;2.85;;;1.85;;
14019;SDS011;7085;51.428;6.796;2022-12-20T08:01:27;3.38;;;1.67;;
14019;SDS011;7085;51.428;6.796;2022-12-20T08:03:56;3.28;;;1.90;;
14019;SDS011;7085;51.428;6.796;2022-12-20T08:06:25;3.65;;;1.77;;
14019;SDS011;7085;51.428;6.796;2022-12-20T08:08:53;1.95;;;1.75;;
14019;SDS011;7085;51.428;6.796;2022-12-20T08:11:23;2.00;;;1.80;;
14019;SDS011;7085;51.428;6.796;2022-12-20T08:13:51;2.78;;;2.10;;
14019;SDS011;7085;51.428;6.796;2022-12-20T08:16:18;2.28;;;1.63;;
14019;SDS011;7085;51.428;6.796;2022-12-20T08:18:45;3.17;;;1.88;;
14019;SDS011;7085;51.428;6.796;2022-12-20T08:21:12;2.60;;;2.00;;
14019;SDS011;7085;51.428;6.796;2022-12-20T08:23:39;2.55;;;1.90;;
14019;SDS011;7085;51.428;6.796;2022-12-20T08:26:06;2.40;;;1.70;;
14019;SDS011;7085;51.428;6.796;2022-12-20T08:28:35;3.95;;;2.10;;
14019;SDS011;7085;51.428;6.796;2022-12-20T08:31:02;2.08;;;1.85;;
14019;SDS011;7085;51.428;6.796;2022-12-20T08:33:31;2.90;;;1.90;;
14019;SDS011;7085;51.428;6.796;2022-12-20T08:36:00;3.67;;;2.25;;
14019;SDS011;7085;51.428;6.796;2022-12-20T08:38:27;4.85;;;1.70;;
14019;SDS011;7085;51.428;6.796;2022-12-20T08:40:55;2.10;;;1.83;;
14019;SDS011;7085;51.428;6.796;2022-12-20T08:43:27;4.35;;;2.30;;
14019;SDS011;7085;51.428;6.796;2022-12-20T08:45:55;3.53;;;2.15;;
14019;SDS011;7085;51.428;6.796;2022-12-20T08:48:22;4.30;;;1.95;;
14019;SDS011;7085;51.428;6.796;2022-12-20T08:50:53;4.00;;;1.85;;
14019;SDS011;7085;51.428;6.796;2022-12-20T08:53:20;3.20;;;2.10;;
14019;SDS011;7085;51.428;6.796;2022-12-20T08:55:47;4.03;;;1.67;;
14019;SDS011;7085;51.428;6.796;2022-12-20T08:58:14;2.28;;;2.08;;
14019;SDS011;7085;51.428;6.796;2022-12-20T09:00:41;2.65;;;1.80;;
14019;SDS011;7085;51.428;6.796;2022-12-20T09:03:09;2.05;;;1.67;;
14019;SDS011;7085;51.428;6.796;2022-12-20T09:05:41;1.67;;;1.35;;
14019;SDS011;7085;51.428;6.796;2022-12-20T09:08:08;4.03;;;1.85;;
14019;SDS011;7085;51.428;6.796;2022-12-20T09:10:36;2.50;;;1.67;;
14019;SDS011;7085;51.428;6.796;2022-12-20T09:13:03;1.92;;;1.70;;
14019;SDS011;7085;51.428;6.796;2022-12-20T09:15:30;1.80;;;1.67;;
14019;SDS011;7085;51.428;6.796;2022-12-20T09:17:58;2.47;;;1.60;;
14019;SDS011;7085;51.428;6.796;2022-12-20T09:20:26;3.38;;;2.00;;
14019;SDS011;7085;51.428;6.796;2022-12-20T09:22:53;1.50;;;1.25;;
14019;SDS011;7085;51.428;6.796;2022-12-20T09:25:21;2.13;;;1.80;;
14019;SDS011;7085;51.428;6.796;2022-12-20T09:27:48;3.10;;;1.70;;
14019;SDS011;7085;51.428;6.796;2022-12-20T09:30:15;1.50;;;1.40;;
14019;SDS011;7085;51.428;6.796;2022-12-20T09:32:42;3.08;;;1.98;;
14019;SDS011;7085;51.428;6.796;2022-12-20T09:35:10;3.10;;;1.67;;
14019;SDS011;7085;51.428;6.796;2022-12-20T09:37:38;2.35;;;1.90;;
14019;SDS011;7085;51.428;6.796;2022-12-20T09:40:09;2.97;;;1.30;;
14019;SDS011;7085;51.428;6.796;2022-12-20T09:42:40;3.05;;;2.10;;
14019;SDS011;7085;51.428;6.796;2022-12-20T09:45:07;1.88;;;1.67;;
14019;SDS011;7085;51.428;6.796;2022-12-20T09:47:35;1.95;;;1.60;;
14019;SDS011;7085;51.428;6.796;2022-12-20T09:50:04;4.20;;;1.70;;
14019;SDS011;7085;51.428;6.796;2022-12-20T09:52:36;2.33;;;1.63;;
14019;SDS011;7085;51.428;6.796;2022-12-20T09:55:16;2.17;;;1.77;;
14019;SDS011;7085;51.428;6.796;2022-12-20T09:57:46;3.03;;;2.13;;
14019;SDS011;7085;51.428;6.796;2022-12-20T10:00:18;2.80;;;1.80;;
14019;SDS011;7085;51.428;6.796;2022-12-20T10:02:45;2.97;;;2.17;;
14019;SDS011;7085;51.428;6.796;2022-12-20T10:05:13;2.97;;;1.60;;
14019;SDS011;7085;51.428;6.796;2022-12-20T10:07:44;4.15;;;2.10;;
14019;SDS011;7085;51.428;6.796;2022-12-20T10:13:00;4.53;;;1.83;;
14019;SDS011;7085;51.428;6.796;2022-12-20T10:15:32;4.20;;;1.70;;
14019;SDS011;7085;51.428;6.796;2022-12-20T10:18:05;1.75;;;1.65;;
14019;SDS011;7085;51.428;6.796;2022-12-20T10:20:40;2.60;;;1.55;;
14019;SDS011;7085;51.428;6.796;2022-12-20T10:23:13;2.40;;;1.90;;
14019;SDS011;7085;51.428;6.796;2022-12-20T10:25:42;2.75;;;2.17;;
14019;SDS011;7085;51.428;6.796;2022-12-20T10:28:10;2.00;;;1.80;;
14019;SDS011;7085;51.428;6.796;2022-12-20T10:30:39;3.65;;;1.77;;
14019;SDS011;7085;51.428;6.796;2022-12-20T10:33:07;4.95;;;2.20;;
14019;SDS011;7085;51.428;6.796;2022-12-20T10:35:41;5.50;;;2.20;;
14019;SDS011;7085;51.428;6.796;2022-12-20T10:38:10;2.75;;;1.63;;
14019;SDS011;7085;51.428;6.796;2022-12-20T10:40:39;2.72;;;1.98;;
14019;SDS011;7085;51.428;6.796;2022-12-20T10:43:12;2.35;;;1.75;;
14019;SDS011;7085;51.428;6.796;2022-12-20T10:45:40;2.95;;;1.88;;
14019;SDS011;7085;51.428;6.796;2022-12-20T10:48:22;4.20;;;1.60;;
14019;SDS011;7085;51.428;6.796;2022-12-20T10:50:54;4.43;;;1.88;;
14019;SDS011;7085;51.428;6.796;2022-12-20T10:53:21;1.60;;;1.45;;
14019;SDS011;7085;51.428;6.796;2022-12-20T10:55:50;2.60;;;2.38;;
14019;SDS011;7085;51.428;6.796;2022-12-20T10:58:21;3.15;;;2.03;;
14019;SDS011;7085;51.428;6.796;2022-12-20T11:00:49;2.50;;;1.42;;
14019;SDS011;7085;51.428;6.796;2022-12-20T11:03:17;4.05;;;1.95;;
14019;SDS011;7085;51.428;6.796;2022-12-20T11:05:55;2.10;;;1.90;;
14019;SDS011;7085;51.428;6.796;2022-12-20T11:08:24;1.75;;;1.13;;
14019;SDS011;7085;51.428;6.796;2022-12-20T11:11:09;2.35;;;1.50;;
14019;SDS011;7085;51.428;6.796;2022-12-20T11:13:36;7.30;;;2.45;;
14019;SDS011;7085;51.428;6.796;2022-12-20T11:16:03;2.65;;;1.95;;
14019;SDS011;7085;51.428;6.796;2022-12-20T11:18:35;6.05;;;1.88;;
14019;SDS011;7085;51.428;6.796;2022-12-20T11:21:08;4.57;;;2.45;;
14019;SDS011;7085;51.428;6.796;2022-12-20T11:23:44;2.13;;;1.58;;
14019;SDS011;7085;51.428;6.796;2022-12-20T11:26:18;2.72;;;1.90;;
14019;SDS011;7085;51.428;6.796;2022-12-20T11:28:50;6.68;;;2.05;;
14019;SDS011;7085;51.428;6.796;2022-12-20T11:31:33;1.65;;;1.55;;
14019;SDS011;7085;51.428;6.796;2022-12-20T11:34:11;1.38;;;1.25;;
14019;SDS011;7085;51.428;6.796;2022-12-20T11:36:45;2.85;;;1.73;;
14019;SDS011;7085;51.428;6.796;2022-12-20T11:39:26;2.13;;;1.85;;
14019;SDS011;7085;51.428;6.796;2022-12-20T11:41:58;4.38;;;1.60;;
14019;SDS011;7085;51.428;6.796;2022-12-20T11:44:31;2.10;;;1.90;;
14019;SDS011;7085;51.428;6.796;2022-12-20T11:47:03;5.18;;;1.65;;
14019;SDS011;7085;51.428;6.796;2022-12-20T11:49:38;2.72;;;1.75;;
14019;SDS011;7085;51.428;6.796;2022-12-20T11:52:09;1.63;;;1.52;;
14019;SDS011;7085;51.428;6.796;2022-12-20T11:54:44;3.70;;;1.73;;
14019;SDS011;7085;51.428;6.796;2022-12-20T11:57:15;5.65;;;2.67;;
14019;SDS011;7085;51.428;6.796;2022-12-20T11:59:46;5.40;;;3.05;;
14019;SDS011;7085;51.428;6.796;2022-12-20T12:02:15;2.78;;;2.38;;
14019;SDS011;7085;51.428;6.796;2022-12-20T12:04:45;5.03;;;2.40;;
14019;SDS011;7085;51.428;6.796;2022-12-20T12:07:20;4.43;;;2.30;;
14019;SDS011;7085;51.428;6.796;2022-12-20T12:09:49;3.08;;;1.95;;
14019;SDS011;7085;51.428;6.796;2022-12-20T12:12:21;1.77;;;1.65;;
14019;SDS011;7085;51.428;6.796;2022-12-20T12:14:51;3.33;;;2.58;;
14019;SDS011;7085;51.428;6.796;2022-12-20T12:17:22;3.28;;;2.83;;
14019;SDS011;7085;51.428;6.796;2022-12-20T12:19:50;2.88;;;2.67;;
14019;SDS011;7085;51.428;6.796;2022-12-20T12:22:23;3.63;;;2.08;;
14019;SDS011;7085;51.428;6.796;2022-12-20T12:24:55;2.58;;;1.85;;
14019;SDS011;7085;51.428;6.796;2022-12-20T12:27:25;3.30;;;2.42;;
14019;SDS011;7085;51.428;6.796;2022-12-20T12:29:53;10.43;;;5.72;;
14019;SDS011;7085;51.428;6.796;2022-12-20T12:32:23;7.50;;;5.22;;
14019;SDS011;7085;51.428;6.796;2022-12-20T12:34:58;5.50;;;4.63;;
14019;SDS011;7085;51.428;6.796;2022-12-20T12:37:32;5.78;;;3.22;;
14019;SDS011;7085;51.428;6.796;2022-12-20T12:40:15;3.10;;;2.17;;
14019;SDS011;7085;51.428;6.796;2022-12-20T12:46:00;5.20;;;2.88;;
14019;SDS011;7085;51.428;6.796;2022-12-20T12:48:29;5.20;;;1.75;;
14019;SDS011;7085;51.428;6.796;2022-12-20T12:50:58;2.30;;;1.75;;
14019;SDS011;7085;51.428;6.796;2022-12-20T12:53:29;3.83;;;1.70;;
14019;SDS011;7085;51.428;6.796;2022-12-20T12:55:58;3.92;;;1.50;;
14019;SDS011;7085;51.428;6.796;2022-12-20T12:58:52;2.20;;;1.83;;
14019;SDS011;7085;51.428;6.796;2022-12-20T13:01:48;2.92;;;1.85;;
14019;SDS011;7085;51.428;6.796;2022-12-20T13:04:21;3.92;;;1.88;;
14019;SDS011;7085;51.428;6.796;2022-12-20T13:06:53;2.85;;;1.90;;
14019;SDS011;7085;51.428;6.796;2022-12-20T13:09:35;4.90;;;1.83;;
14019;SDS011;7085;51.428;6.796;2022-12-20T13:14:48;5.43;;;2.30;;
14019;SDS011;7085;51.428;6.796;2022-12-20T13:20:14;2.75;;;1.90;;
14019;SDS011;7085;51.428;6.796;2022-12-20T13:22:41;5.15;;;2.13;;
14019;SDS011;7085;51.428;6.796;2022-12-20T13:25:28;1.85;;;1.60;;
14019;SDS011;7085;51.428;6.796;2022-12-20T13:30:38;2.28;;;1.80;;
14019;SDS011;7085;51.428;6.796;2022-12-20T13:41:52;2.70;;;1.25;;
14019;SDS011;7085;51.428;6.796;2022-12-20T13:44:41;2.70;;;1.67;;
14019;SDS011;7085;51.428;6.796;2022-12-20T13:47:18;2.05;;;1.80;;
14019;SDS011;7085;51.428;6.796;2022-12-20T13:49:48;2.95;;;1.75;;
14019;SDS011;7085;51.428;6.796;2022-12-20T13:52:21;2.03;;;1.88;;
14019;SDS011;7085;51.428;6.796;2022-12-20T13:54:54;1.85;;;1.73;;
14019;SDS011;7085;51.428;6.796;2022-12-20T13:57:28;4.88;;;2.30;;
14019;SDS011;7085;51.428;6.796;2022-12-20T13:59:58;3.60;;;2.35;;
14019;SDS011;7085;51.428;6.796;2022-12-20T14:02:26;4.72;;;2.47;;
14019;SDS011;7085;51.428;6.796;2022-12-20T14:04:56;2.65;;;2.00;;
14019;SDS011;7085;51.428;6.796;2022-12-20T14:07:24;3.08;;;1.95;;
14019;SDS011;7085;51.428;6.796;2022-12-20T14:09:57;5.70;;;2.45;;
14019;SDS011;7085;51.428;6.796;2022-12-20T14:12:25;3.72;;;2.35;;
14019;SDS011;7085;51.428;6.796;2022-12-20T14:14:52;6.40;;;3.10;;
14019;SDS011;7085;51.428;6.796;2022-12-20T14:17:21;9.82;;;6.82;;
14019;SDS011;7085;51.428;6.796;2022-12-20T14:20:00;10.10;;;6.25;;
14019;SDS011;7085;51.428;6.796;2022-12-20T14:22:29;8.52;;;5.13;;
14019;SDS011;7085;51.428;6.796;2022-12-20T14:24:57;4.60;;;3.45;;
14019;SDS011;7085;51.428;6.796;2022-12-20T14:27:24;2.85;;;2.50;;
14019;SDS011;7085;51.428;6.796;2022-12-20T14:29:55;4.13;;;2.80;;
14019;SDS011;7085;51.428;6.796;2022-12-20T14:32:22;2.05;;;1.85;;
14019;SDS011;7085;51.428;6.796;2022-12-20T14:34:48;3.08;;;2.33;;
14019;SDS011;7085;51.428;6.796;2022-12-20T14:37:16;4.22;;;2.38;;
14019;SDS011;7085;51.428;6.796;2022-12-20T14:39:54;3.60;;;2.58;;
14019;SDS011;7085;51.428;6.796;2022-12-20T14:42:22;4.65;;;2.55;;
14019;SDS011;7085;51.428;6.796;2022-12-20T14:45:00;4.00;;;2.65;;
14019;SDS011;7085;51.428;6.796;2022-12-20T14:47:27;5.53;;;2.80;;
14019;SDS011;7085;51.428;6.796;2022-12-20T14:49:56;8.27;;;3.30;;
14019;SDS011;7085;51.428;6.796;2022-12-20T14:52:25;5.88;;;2.85;;
14019;SDS011;7085;51.428;6.796;2022-12-20T14:54:58;7.00;;;3.30;;
14019;SDS011;7085;51.428;6.796;2022-12-20T14:57:28;5.38;;;2.90;;
14019;SDS011;7085;51.428;6.796;2022-12-20T14:59:58;5.38;;;2.75;;
14019;SDS011;7085;51.428;6.796;2022-12-20T15:02:33;6.10;;;3.17;;
14019;SDS011;7085;51.428;6.796;2022-12-20T15:05:07;5.80;;;2.95;;
14019;SDS011;7085;51.428;6.796;2022-12-20T15:07:34;8.07;;;3.15;;
14019;SDS011;7085;51.428;6.796;2022-12-20T15:10:06;6.43;;;3.08;;
14019;SDS011;7085;51.428;6.796;2022-12-20T15:12:35;6.40;;;3.53;;
14019;SDS011;7085;51.428;6.796;2022-12-20T15:15:02;8.45;;;3.70;;
14019;SDS011;7085;51.428;6.796;2022-12-20T15:17:29;10.55;;;4.20;;
14019;SDS011;7085;51.428;6.796;2022-12-20T15:19:57;4.45;;;3.30;;
14019;SDS011;7085;51.428;6.796;2022-12-20T15:22:25;4.90;;;2.83;;
14019;SDS011;7085;51.428;6.796;2022-12-20T15:24:51;7.25;;;3.00;;
14019;SDS011;7085;51.428;6.796;2022-12-20T15:27:18;4.63;;;2.88;;
14019;SDS011;7085;51.428;6.796;2022-12-20T15:29:47;7.15;;;3.03;;
14019;SDS011;7085;51.428;6.796;2022-12-20T15:32:15;6.50;;;3.33;;
14019;SDS011;7085;51.428;6.796;2022-12-20T15:34:43;5.72;;;3.97;;
14019;SDS011;7085;51.428;6.796;2022-12-20T15:37:11;8.63;;;3.70;;
14019;SDS011;7085;51.428;6.796;2022-12-20T15:39:39;7.82;;;2.90;;